Terminal Aerodrome Forecast
Issued by NWS Binghamton, NY

Home | Current Version | Previous Version | Text Only | Print | Product List | Glossary On
Versions: 1 2 3 4 5 6 7 8 9 10 11 12 13 14 15 16 17 18
528
FTUS41 KBGM 251425 AAC
TAFBGM
TAF AMD
KBGM 251425Z 2514/2612 11013G19KT 5SM -RA BR OVC015 WS020/12045KT
      TEMPO 2514/2518 BKN008
     FM251800 11012KT P6SM OVC012 WS020/12045KT
     FM252000 11010KT P6SM OVC009
     FM260300 09005KT 5SM -SHRA OVC007
     FM260800 VRB03KT 3SM BR OVC003=

USA.gov is the U.S. government's official web portal to all federal, state and local government web resources and services.